createdAt,value
2023-03-11T00:00:49.894Z,0.60
2023-03-11T00:03:20.144Z,0.73
2023-03-11T00:05:49.899Z,0.50
2023-03-11T00:08:21.124Z,0.63
2023-03-11T00:10:53.607Z,0.60
2023-03-11T00:13:21.976Z,0.70
2023-03-11T00:15:55.760Z,0.70
2023-03-11T00:18:26.990Z,0.43
2023-03-11T00:20:57.609Z,0.43
2023-03-11T00:23:27.368Z,0.70
2023-03-11T00:25:56.257Z,0.90
2023-03-11T00:28:26.583Z,0.90
2023-03-11T00:30:55.135Z,0.70
2023-03-11T00:33:23.652Z,1.10
2023-03-11T00:35:51.932Z,0.93
2023-03-11T00:38:22.780Z,0.90
2023-03-11T00:40:51.298Z,0.87
2023-03-11T00:43:19.728Z,0.93
2023-03-11T00:45:48.285Z,0.90
2023-03-11T00:48:16.510Z,0.90
2023-03-11T00:50:44.997Z,0.93
2023-03-11T00:53:13.186Z,0.90
2023-03-11T00:55:42.817Z,0.80
2023-03-11T00:58:15.941Z,0.70
2023-03-11T01:00:48.131Z,0.80
2023-03-11T01:03:16.167Z,0.83
2023-03-11T01:05:46.073Z,0.87
2023-03-11T01:08:14.172Z,1.00
2023-03-11T01:10:43.560Z,0.70
2023-03-11T01:13:11.590Z,1.00
2023-03-11T01:15:40.031Z,1.03
2023-03-11T01:18:10.054Z,0.97
2023-03-11T01:20:39.765Z,0.90
2023-03-11T01:23:09.056Z,0.60
2023-03-11T01:25:37.946Z,1.53
2023-03-11T01:28:09.253Z,0.90
2023-03-11T01:30:40.665Z,0.90
2023-03-11T01:33:15.373Z,1.17
2023-03-11T01:35:44.203Z,0.90
2023-03-11T01:38:37.553Z,0.70
2023-03-11T01:41:07.133Z,1.00
2023-03-11T01:43:57.915Z,0.80
2023-03-11T01:46:34.845Z,1.10
2023-03-11T01:49:05.802Z,0.97
2023-03-11T01:51:42.106Z,1.10
2023-03-11T01:54:17.313Z,0.97
2023-03-11T01:56:46.330Z,0.90
2023-03-11T01:59:20.398Z,1.13
2023-03-11T02:01:59.591Z,0.90
2023-03-11T02:04:29.409Z,1.13
2023-03-11T02:06:58.264Z,1.13
2023-03-11T02:09:27.524Z,1.00
2023-03-11T02:11:56.359Z,1.07
2023-03-11T02:14:27.237Z,1.00
2023-03-11T02:16:56.149Z,0.70
2023-03-11T02:19:38.385Z,0.50
2023-03-11T02:22:07.088Z,0.73
2023-03-11T02:24:41.869Z,0.73
2023-03-11T02:27:16.173Z,0.87
2023-03-11T02:29:50.317Z,0.90
2023-03-11T02:32:20.536Z,0.60
2023-03-11T02:34:48.641Z,0.80
2023-03-11T02:37:18.422Z,1.03
2023-03-11T02:39:55.958Z,0.83
2023-03-11T02:42:29.588Z,0.60
2023-03-11T02:45:04.095Z,0.63
2023-03-11T02:47:33.272Z,0.90
2023-03-11T02:50:01.300Z,0.90
2023-03-11T02:52:32.897Z,0.80
2023-03-11T02:55:01.016Z,0.80
2023-03-11T02:57:30.488Z,0.80
2023-03-11T02:59:59.932Z,0.70
2023-03-11T03:02:27.915Z,0.70
2023-03-11T03:04:56.000Z,0.80
2023-03-11T03:07:24.462Z,0.70
2023-03-11T03:09:52.551Z,0.70
2023-03-11T03:12:20.654Z,0.80
2023-03-11T03:14:50.913Z,0.87
2023-03-11T03:17:19.657Z,0.87
2023-03-11T03:19:48.691Z,0.90
2023-03-11T03:22:16.916Z,0.70
2023-03-11T03:24:46.150Z,0.60
2023-03-11T03:27:14.194Z,0.83
2023-03-11T03:29:42.168Z,0.77
2023-03-11T03:32:11.757Z,0.93
2023-03-11T03:34:39.788Z,0.97
2023-03-11T03:37:08.269Z,0.97
2023-03-11T03:39:36.686Z,0.60
2023-03-11T03:42:05.457Z,0.80
2023-03-11T03:44:36.009Z,0.60
2023-03-11T03:47:04.044Z,0.70
2023-03-11T03:49:33.660Z,0.90
2023-03-11T03:52:02.385Z,0.73
2023-03-11T03:54:33.251Z,0.40
2023-03-11T03:57:01.948Z,0.80
2023-03-11T03:59:32.238Z,0.87
2023-03-11T04:02:02.264Z,0.67
2023-03-11T04:04:33.152Z,0.40
2023-03-11T04:07:01.332Z,0.57
2023-03-11T04:09:30.305Z,0.63
2023-03-11T04:11:59.858Z,0.47
2023-03-11T04:14:28.228Z,0.60
2023-03-11T04:17:00.264Z,0.90
2023-03-11T04:19:28.890Z,0.63
2023-03-11T04:21:58.967Z,0.70
2023-03-11T04:24:28.256Z,0.70
2023-03-11T04:26:56.567Z,0.83
2023-03-11T04:29:24.713Z,0.87
2023-03-11T04:31:54.764Z,0.63
2023-03-11T04:34:22.899Z,0.87
2023-03-11T04:36:54.014Z,0.73
2023-03-11T04:39:27.102Z,0.70
2023-03-11T04:41:55.816Z,0.70
2023-03-11T04:44:26.331Z,0.90
2023-03-11T04:46:54.448Z,0.57
2023-03-11T04:49:23.277Z,0.77
2023-03-11T04:51:53.188Z,0.70
2023-03-11T04:54:23.537Z,0.70
2023-03-11T04:56:54.095Z,0.90
2023-03-11T04:59:23.277Z,0.77
2023-03-11T05:01:52.870Z,0.77
2023-03-11T05:04:21.102Z,1.27
2023-03-11T05:06:51.059Z,0.80
2023-03-11T05:09:19.504Z,0.83
2023-03-11T05:11:47.634Z,0.87
2023-03-11T05:14:19.680Z,0.90
2023-03-11T05:16:48.140Z,0.77
2023-03-11T05:19:31.654Z,1.10
2023-03-11T05:22:03.724Z,0.50
2023-03-11T05:24:32.754Z,0.40
2023-03-11T05:27:01.388Z,0.70
2023-03-11T05:29:31.178Z,0.67
2023-03-11T05:32:00.062Z,1.00
2023-03-11T05:34:28.282Z,0.73
2023-03-11T05:36:56.441Z,0.77
2023-03-11T05:39:25.342Z,0.70
2023-03-11T05:41:53.754Z,0.80
2023-03-11T05:44:21.808Z,0.40
2023-03-11T05:46:51.368Z,0.90
2023-03-11T05:49:21.246Z,0.43
2023-03-11T05:51:51.282Z,0.93
2023-03-11T05:54:19.546Z,0.80
2023-03-11T05:56:50.339Z,1.00
2023-03-11T05:59:20.809Z,0.60
2023-03-11T06:01:57.212Z,0.80
2023-03-11T06:04:26.226Z,0.77
2023-03-11T06:06:54.686Z,0.63
2023-03-11T06:09:25.476Z,0.77
2023-03-11T06:11:54.763Z,1.40
2023-03-11T06:14:25.866Z,0.87
2023-03-11T06:16:53.925Z,0.77
2023-03-11T06:19:24.175Z,0.50
2023-03-11T06:21:53.140Z,0.60
2023-03-11T06:24:21.184Z,1.10
2023-03-11T06:26:52.967Z,0.70
2023-03-11T06:29:24.740Z,0.77
2023-03-11T06:31:53.280Z,0.80
2023-03-11T06:34:23.743Z,0.80
2023-03-11T06:36:54.654Z,1.13
2023-03-11T06:39:22.991Z,1.00
2023-03-11T06:41:52.829Z,0.80
2023-03-11T06:44:21.123Z,0.63
2023-03-11T06:46:49.234Z,0.97
2023-03-11T06:49:18.893Z,0.90
2023-03-11T06:51:48.545Z,0.60
2023-03-11T06:54:17.316Z,1.20
2023-03-11T06:56:46.361Z,0.70
2023-03-11T06:59:15.995Z,0.63
2023-03-11T07:01:44.049Z,1.00
2023-03-11T07:04:12.330Z,1.10
2023-03-11T07:06:43.377Z,0.83
2023-03-11T07:09:22.286Z,0.60
2023-03-11T07:11:50.478Z,0.70
2023-03-11T07:14:26.040Z,0.80
2023-03-11T07:16:57.126Z,0.77
2023-03-11T07:19:40.319Z,0.87
2023-03-11T07:22:08.293Z,0.97
2023-03-11T07:24:37.678Z,1.00
2023-03-11T07:27:06.117Z,1.60
2023-03-11T07:29:34.117Z,1.00
2023-03-11T07:32:02.464Z,1.23
2023-03-11T07:34:30.644Z,0.70
2023-03-11T07:36:58.736Z,0.90
2023-03-11T07:39:26.772Z,0.90
2023-03-11T07:41:56.790Z,1.20
2023-03-11T07:44:32.415Z,0.97
2023-03-11T07:47:04.140Z,1.13
2023-03-11T07:49:32.332Z,2.07
2023-03-11T07:52:00.574Z,0.90
2023-03-11T07:54:28.744Z,0.90
2023-03-11T07:56:58.104Z,1.30
2023-03-11T07:59:26.336Z,1.30
2023-03-11T08:01:54.348Z,0.90
2023-03-11T08:04:22.412Z,0.73
2023-03-11T08:06:50.481Z,1.20
2023-03-11T08:09:18.853Z,1.07
2023-03-11T08:11:49.216Z,0.90
2023-03-11T08:14:18.996Z,1.27
2023-03-11T08:16:47.010Z,1.33
2023-03-11T08:19:15.588Z,0.80
2023-03-11T08:21:43.745Z,0.80
2023-03-11T08:24:15.200Z,1.03
2023-03-11T08:26:49.129Z,1.17
2023-03-11T08:29:24.869Z,1.00
2023-03-11T08:31:55.815Z,0.57
2023-03-11T08:34:24.125Z,0.90
2023-03-11T08:36:52.311Z,1.10
2023-03-11T08:39:20.266Z,0.63
2023-03-11T08:41:49.120Z,0.90
2023-03-11T08:44:17.225Z,0.73
2023-03-11T08:46:46.945Z,0.90
2023-03-11T08:49:15.039Z,0.60
2023-03-11T08:51:43.392Z,1.23
2023-03-11T08:54:11.844Z,0.40
2023-03-11T08:56:39.961Z,0.90
2023-03-11T08:59:13.028Z,0.77
2023-03-11T09:01:42.813Z,0.53
2023-03-11T09:04:12.684Z,0.57
2023-03-11T09:06:44.300Z,0.60
2023-03-11T09:09:14.484Z,1.20
2023-03-11T09:11:42.532Z,1.33
2023-03-11T09:14:10.556Z,0.87
2023-03-11T09:16:38.700Z,1.07
2023-03-11T09:19:07.492Z,0.90
2023-03-11T09:21:37.398Z,1.00
2023-03-11T09:24:07.204Z,0.67
2023-03-11T09:26:36.531Z,0.90
2023-03-11T09:29:04.581Z,1.00
2023-03-11T09:31:32.630Z,1.20
2023-03-11T09:34:00.690Z,0.93
2023-03-11T09:36:28.736Z,1.27
2023-03-11T09:38:58.072Z,1.00
2023-03-11T09:41:55.396Z,0.80
2023-03-11T09:44:32.878Z,0.63
2023-03-11T09:47:48.369Z,0.50
2023-03-11T09:50:45.954Z,0.47
2023-03-11T09:57:20.969Z,0.43
2023-03-11T09:59:49.873Z,0.80
2023-03-11T10:02:22.340Z,0.80
2023-03-11T10:04:58.152Z,0.60
2023-03-11T10:07:34.785Z,0.90
2023-03-11T10:10:03.744Z,0.70
2023-03-11T10:12:53.302Z,0.50
2023-03-11T10:15:32.718Z,0.70
2023-03-11T10:18:19.937Z,0.70
2023-03-11T10:20:55.107Z,0.43
2023-03-11T10:23:31.069Z,0.60
2023-03-11T10:26:09.539Z,0.67
2023-03-11T10:28:47.636Z,0.60
2023-03-11T10:31:27.645Z,0.90
2023-03-11T10:34:04.136Z,1.03
2023-03-11T10:36:41.511Z,1.03
2023-03-11T10:39:18.478Z,1.07
2023-03-11T10:41:55.138Z,2.00
2023-03-11T10:44:30.262Z,0.97
2023-03-11T10:46:58.617Z,1.17
2023-03-11T10:49:27.246Z,0.77
2023-03-11T10:51:57.153Z,0.93
2023-03-11T10:54:29.907Z,0.57
2023-03-11T10:57:01.763Z,0.60
2023-03-11T10:59:48.662Z,0.93
2023-03-11T11:02:26.954Z,0.67
2023-03-11T11:05:28.996Z,1.37
2023-03-11T11:08:09.632Z,0.80
2023-03-11T11:10:43.987Z,0.70
2023-03-11T11:13:21.073Z,0.70
2023-03-11T11:16:00.558Z,0.80
2023-03-11T11:18:35.936Z,1.10
2023-03-11T11:21:08.053Z,1.57
2023-03-11T11:23:43.109Z,0.73
2023-03-11T11:26:20.322Z,1.03
2023-03-11T11:29:13.489Z,1.10
2023-03-11T11:31:46.072Z,0.50
2023-03-11T11:34:31.264Z,0.80
2023-03-11T11:37:02.486Z,0.60
2023-03-11T11:39:41.999Z,0.70
2023-03-11T11:42:14.641Z,0.50
2023-03-11T11:44:47.122Z,0.70
2023-03-11T11:47:21.027Z,0.60
2023-03-11T11:49:55.737Z,0.40
2023-03-11T11:52:28.421Z,0.90
2023-03-11T11:55:04.909Z,0.80
2023-03-11T11:57:33.452Z,0.63
2023-03-11T12:00:06.576Z,0.67
2023-03-11T12:03:03.118Z,0.83
2023-03-11T12:05:34.619Z,0.50
2023-03-11T12:08:12.957Z,0.70
2023-03-11T12:10:48.784Z,1.23
2023-03-11T12:14:02.247Z,0.90
2023-03-11T12:16:43.093Z,1.13
2023-03-11T12:19:30.940Z,0.80
2023-03-11T12:22:52.815Z,0.57
2023-03-11T12:25:34.232Z,0.63
2023-03-11T12:28:36.119Z,0.70
2023-03-11T12:31:10.015Z,0.90
2023-03-11T12:33:42.027Z,0.57
2023-03-11T12:36:25.564Z,1.10
2023-03-11T12:38:55.345Z,0.93
2023-03-11T12:41:36.859Z,0.87
2023-03-11T12:44:23.759Z,0.80
2023-03-11T12:47:23.536Z,0.70
2023-03-11T12:49:55.216Z,0.80
2023-03-11T12:52:31.734Z,0.90
2023-03-11T12:55:37.063Z,0.90
2023-03-11T12:58:42.236Z,0.67
2023-03-11T13:01:48.783Z,0.67
2023-03-11T13:04:41.288Z,0.77
2023-03-11T13:07:52.325Z,0.43
2023-03-11T13:10:37.176Z,1.00
2023-03-11T13:13:33.165Z,0.80
2023-03-11T13:16:41.575Z,0.80
2023-03-11T13:19:52.708Z,0.60
2023-03-11T13:23:00.928Z,0.70
2023-03-11T13:25:40.827Z,0.93
2023-03-11T13:28:52.819Z,0.70
2023-03-11T13:31:49.756Z,0.90
2023-03-11T13:34:25.683Z,0.73
2023-03-11T13:37:17.375Z,0.70
2023-03-11T13:39:55.864Z,0.70
2023-03-11T13:42:30.518Z,0.67
2023-03-11T13:44:59.753Z,1.00
2023-03-11T13:47:31.813Z,0.80
2023-03-11T13:50:06.490Z,0.80
2023-03-11T13:52:40.369Z,0.80
2023-03-11T13:55:20.130Z,0.60
2023-03-11T13:57:52.859Z,1.00
2023-03-11T14:00:24.096Z,0.70
2023-03-11T14:02:56.398Z,0.90
2023-03-11T14:05:27.040Z,1.00
2023-03-11T14:07:55.360Z,1.23
2023-03-11T14:10:31.483Z,0.90
2023-03-11T14:13:17.960Z,0.60
2023-03-11T14:16:10.058Z,1.13
2023-03-11T14:18:43.403Z,0.93
2023-03-11T14:21:16.760Z,0.60
2023-03-11T14:23:48.360Z,0.90
2023-03-11T14:26:22.187Z,1.00
2023-03-11T14:28:53.272Z,1.10
2023-03-11T14:31:26.667Z,0.73
2023-03-11T14:34:04.365Z,1.20
2023-03-11T14:36:42.456Z,0.83
2023-03-11T14:39:30.550Z,1.23
2023-03-11T14:42:07.778Z,1.00
2023-03-11T14:44:43.795Z,0.97
2023-03-11T14:47:22.150Z,0.90
2023-03-11T14:49:53.882Z,0.70
2023-03-11T14:52:34.510Z,2.23
2023-03-11T14:55:04.131Z,1.50
2023-03-11T14:57:39.474Z,1.63
2023-03-11T15:00:16.997Z,1.40
2023-03-11T15:03:00.503Z,0.70
2023-03-11T15:05:42.616Z,1.03
2023-03-11T15:08:11.380Z,0.70
2023-03-11T15:10:39.516Z,1.07
2023-03-11T15:13:14.593Z,1.23
2023-03-11T15:15:42.964Z,1.13
2023-03-11T15:18:24.970Z,1.33
2023-03-11T15:21:15.867Z,0.93
2023-03-11T15:23:48.818Z,0.80
2023-03-11T15:26:25.282Z,0.90
2023-03-11T15:28:59.919Z,1.00
2023-03-11T15:31:33.562Z,1.30
2023-03-11T15:34:31.958Z,0.90
2023-03-11T15:37:07.117Z,1.03
2023-03-11T15:39:50.973Z,1.00
2023-03-11T15:42:24.386Z,1.07
2023-03-11T15:45:17.303Z,0.87
2023-03-11T15:47:46.350Z,0.80
2023-03-11T15:50:27.298Z,0.87
2023-03-11T15:52:59.936Z,0.70
2023-03-11T15:55:28.671Z,0.90
2023-03-11T15:58:04.403Z,0.63
2023-03-11T16:00:33.347Z,0.90
2023-03-11T16:03:01.607Z,1.30
2023-03-11T16:05:30.496Z,0.90
2023-03-11T16:07:59.895Z,0.73
2023-03-11T16:10:28.704Z,1.07
2023-03-11T16:12:57.321Z,1.10
2023-03-11T16:15:28.772Z,1.30
2023-03-11T16:17:59.710Z,1.00
2023-03-11T16:20:34.624Z,1.03
2023-03-11T16:23:04.739Z,2.17
2023-03-11T16:25:37.121Z,1.20
2023-03-11T16:28:05.972Z,1.30
2023-03-11T16:30:36.459Z,1.10
2023-03-11T16:33:05.330Z,0.80
2023-03-11T16:35:33.873Z,0.80
2023-03-11T16:38:03.719Z,0.73
2023-03-11T16:40:32.681Z,1.00
2023-03-11T16:43:04.493Z,1.20
2023-03-11T16:45:33.096Z,1.60
2023-03-11T16:48:01.658Z,1.97
2023-03-11T16:50:30.883Z,1.57
2023-03-11T16:53:00.145Z,1.30
2023-03-11T16:55:31.943Z,1.13
2023-03-11T16:58:00.260Z,1.10
2023-03-11T17:00:31.370Z,1.00
2023-03-11T17:02:59.623Z,0.77
2023-03-11T17:05:27.956Z,1.03
2023-03-11T17:08:00.647Z,1.23
2023-03-11T17:10:30.497Z,0.87
2023-03-11T17:12:58.533Z,1.93
2023-03-11T17:15:26.905Z,1.63
2023-03-11T17:17:54.942Z,0.90
2023-03-11T17:20:23.296Z,0.97
2023-03-11T17:22:51.366Z,0.97
2023-03-11T17:25:20.007Z,0.80
2023-03-11T17:27:50.468Z,1.00
2023-03-11T17:30:35.550Z,0.80
2023-03-11T17:33:05.203Z,1.10
2023-03-11T17:35:33.752Z,1.20
2023-03-11T17:38:02.324Z,1.50
2023-03-11T17:40:31.602Z,1.30
2023-03-11T17:43:01.417Z,1.10
2023-03-11T17:45:29.600Z,1.10
2023-03-11T17:47:57.624Z,1.30
2023-03-11T17:50:26.265Z,1.23
2023-03-11T17:52:56.442Z,1.17
2023-03-11T17:55:24.875Z,1.17
2023-03-11T17:57:53.760Z,1.23
2023-03-11T18:00:25.676Z,1.40
2023-03-11T18:02:53.734Z,1.70
2023-03-11T18:05:23.015Z,1.47
2023-03-11T18:07:51.098Z,2.10
2023-03-11T18:10:19.680Z,2.20
2023-03-11T18:12:48.713Z,1.73
2023-03-11T18:15:19.295Z,2.37
2023-03-11T18:17:49.835Z,1.87
2023-03-11T18:20:18.516Z,2.57
2023-03-11T18:22:47.299Z,1.83
2023-03-11T18:25:15.681Z,2.37
2023-03-11T18:27:44.522Z,2.30
2023-03-11T18:30:15.384Z,1.70
2023-03-11T18:32:44.691Z,2.10
2023-03-11T18:35:14.135Z,2.17
2023-03-11T18:37:42.261Z,3.23
2023-03-11T18:40:12.578Z,3.97
2023-03-11T18:42:45.383Z,5.60
2023-03-11T18:45:13.937Z,4.87
2023-03-11T18:47:42.017Z,3.80
2023-03-11T18:50:13.134Z,3.90
2023-03-11T18:52:41.216Z,3.43
2023-03-11T18:55:10.175Z,3.67
2023-03-11T18:57:40.278Z,3.20
2023-03-11T19:00:11.746Z,3.80
2023-03-11T19:02:40.294Z,3.73
2023-03-11T19:05:09.825Z,2.90
2023-03-11T19:07:39.596Z,3.03
2023-03-11T19:10:09.577Z,4.83
2023-03-11T19:12:38.060Z,6.83
2023-03-11T19:15:07.977Z,5.00
2023-03-11T19:17:36.097Z,3.27
2023-03-11T19:20:08.183Z,3.20
2023-03-11T19:22:37.358Z,3.13
2023-03-11T19:25:11.360Z,2.97
2023-03-11T19:27:40.165Z,3.10
2023-03-11T19:30:10.152Z,3.27
2023-03-11T19:32:40.305Z,3.00
2023-03-11T19:35:10.876Z,2.67
2023-03-11T19:37:39.474Z,2.37
2023-03-11T19:40:11.584Z,2.10
2023-03-11T19:42:39.711Z,2.50
2023-03-11T19:45:09.153Z,2.17
2023-03-11T19:47:37.506Z,2.10
2023-03-11T19:50:06.452Z,2.30
2023-03-11T19:52:36.024Z,1.87
2023-03-11T19:55:04.608Z,2.03
2023-03-11T19:57:34.073Z,2.40
2023-03-11T20:00:02.286Z,2.73
2023-03-11T20:02:35.467Z,2.37
2023-03-11T20:05:03.824Z,2.53
2023-03-11T20:07:32.055Z,2.30
2023-03-11T20:10:00.321Z,1.90
2023-03-11T20:12:28.665Z,2.43
2023-03-11T20:14:58.274Z,1.30
2023-03-11T20:17:26.441Z,1.40
2023-03-11T20:19:54.493Z,4.33
2023-03-11T20:22:22.574Z,5.10
2023-03-11T20:24:50.558Z,4.53
2023-03-11T20:27:18.721Z,3.80
2023-03-11T20:29:46.721Z,3.63
2023-03-11T20:32:16.217Z,2.60
2023-03-11T20:34:44.320Z,4.67
2023-03-11T20:37:12.790Z,7.47
2023-03-11T20:39:40.959Z,7.63
2023-03-11T20:42:09.084Z,8.23
2023-03-11T20:44:37.212Z,4.50
2023-03-11T20:47:05.455Z,3.37
2023-03-11T20:49:35.409Z,3.63
2023-03-11T20:52:03.667Z,2.10
2023-03-11T20:54:32.019Z,1.80
2023-03-11T20:57:00.127Z,2.43
2023-03-11T20:59:29.376Z,2.13
2023-03-11T21:01:57.505Z,3.50
2023-03-11T21:04:25.713Z,3.50
2023-03-11T21:06:55.427Z,4.27
2023-03-11T21:09:24.016Z,3.93
2023-03-11T21:11:55.513Z,2.67
2023-03-11T21:14:23.689Z,2.10
2023-03-11T21:16:51.819Z,1.60
2023-03-11T21:19:22.225Z,1.30
2023-03-11T21:21:51.126Z,2.43
2023-03-11T21:24:21.297Z,2.43
2023-03-11T21:26:50.366Z,1.73
2023-03-11T21:29:18.497Z,1.50
2023-03-11T21:31:48.442Z,1.40
2023-03-11T21:34:16.512Z,2.00
2023-03-11T21:36:44.605Z,2.17
2023-03-11T21:39:14.651Z,1.80
2023-03-11T21:41:44.088Z,1.47
2023-03-11T21:44:14.335Z,1.40
2023-03-11T21:46:42.607Z,1.00
2023-03-11T21:49:11.828Z,1.53
2023-03-11T21:51:40.024Z,1.60
2023-03-11T21:54:09.022Z,1.50
2023-03-11T21:56:37.482Z,1.70
2023-03-11T21:59:07.045Z,1.97
2023-03-11T22:01:36.576Z,1.90
2023-03-11T22:04:05.377Z,2.23
2023-03-11T22:06:39.307Z,1.67
2023-03-11T22:09:08.070Z,2.47
2023-03-11T22:11:40.066Z,1.60
2023-03-11T22:14:09.773Z,1.90
2023-03-11T22:16:38.756Z,2.30
2023-03-11T22:19:08.739Z,2.50
2023-03-11T22:21:36.948Z,2.40
2023-03-11T22:24:05.634Z,2.80
2023-03-11T22:26:33.689Z,4.87
2023-03-11T22:29:03.881Z,5.47
2023-03-11T22:31:33.719Z,3.03
2023-03-11T22:34:01.849Z,2.67
2023-03-11T22:36:29.976Z,2.20
2023-03-11T22:38:58.149Z,1.70
2023-03-11T22:41:26.271Z,2.63
2023-03-11T22:43:54.447Z,2.13
2023-03-11T22:46:22.669Z,2.50
2023-03-11T22:48:52.008Z,2.03
2023-03-11T22:51:20.001Z,2.30
2023-03-11T22:53:48.679Z,2.60
2023-03-11T22:56:19.253Z,2.90
2023-03-11T22:58:47.688Z,3.00
2023-03-11T23:01:16.506Z,3.03
2023-03-11T23:03:45.132Z,3.00
2023-03-11T23:06:18.109Z,2.90
2023-03-11T23:08:47.460Z,3.43
2023-03-11T23:11:20.056Z,4.70
2023-03-11T23:13:49.718Z,4.10
2023-03-11T23:16:20.358Z,4.47
2023-03-11T23:18:52.120Z,4.30
2023-03-11T23:21:24.402Z,3.50
2023-03-11T23:23:54.424Z,3.37
2023-03-11T23:26:23.338Z,3.57
2023-03-11T23:28:52.016Z,2.80
2023-03-11T23:31:22.004Z,3.37
2023-03-11T23:33:50.768Z,3.03
2023-03-11T23:36:22.295Z,2.70
2023-03-11T23:38:51.729Z,3.17
2023-03-11T23:41:23.607Z,3.50
2023-03-11T23:43:52.131Z,2.87
2023-03-11T23:46:20.638Z,2.83
2023-03-11T23:48:48.701Z,3.30
2023-03-11T23:51:16.716Z,3.20
2023-03-11T23:53:46.096Z,2.90
2023-03-11T23:56:17.789Z,2.57
2023-03-11T23:58:46.434Z,2.97
